Time;durP1;ratioP1;P1;durP2;ratioP2;P2;SDS_P1;SDS_P2;PMS_P1;PMS_P2;Temp;Humidity;BMP_temperature;BMP_pressure;BME280_temperature;BME280_humidity;BME280_pressure;Samples;Min_cycle;Max_cycle;Signal;HPM_P1;HPM_P2
2022/06/13 00:00:51;;;;;;;15.43;8.75;;;;;;;23.14;49.35;102183.72;5077954;28;20046;-54
2022/06/13 00:03:18;;;;;;;15.93;8.82;;;;;;;23.14;49.11;102179.16;5078048;28;20048;-54
2022/06/13 00:05:44;;;;;;;16.33;9.30;;;;;;;23.13;49.42;102173.91;5079718;28;20044;-55
2022/06/13 00:08:11;;;;;;;16.13;8.90;;;;;;;23.13;49.20;102180.16;5073714;28;20044;-55
2022/06/13 00:10:37;;;;;;;15.02;8.68;;;;;;;23.13;49.36;102179.31;5074272;28;20055;-54
2022/06/13 00:13:05;;;;;;;14.07;8.90;;;;;;;23.12;49.51;102174.94;5078252;28;20044;-54
2022/06/13 00:15:31;;;;;;;15.70;8.18;;;;;;;23.11;49.29;102171.34;5077617;28;20059;-54
2022/06/13 00:17:58;;;;;;;14.13;7.82;;;;;;;23.10;49.94;102172.34;5075621;28;20054;-54
2022/06/13 00:20:25;;;;;;;13.77;8.57;;;;;;;23.10;49.85;102175.06;5075932;28;20201;-54
2022/06/13 00:22:51;;;;;;;13.38;8.02;;;;;;;23.09;49.30;102162.56;5076777;28;20040;-53
2022/06/13 00:25:18;;;;;;;15.52;8.63;;;;;;;23.08;49.92;102152.75;5081686;28;20438;-54
2022/06/13 00:27:44;;;;;;;15.18;8.43;;;;;;;23.08;49.72;102160.00;5077409;28;20048;-53
2022/06/13 00:30:11;;;;;;;15.35;8.90;;;;;;;23.07;49.88;102161.00;5076875;28;20036;-54
2022/06/13 00:32:38;;;;;;;13.70;8.20;;;;;;;23.06;50.18;102162.00;5072540;28;20074;-54
2022/06/13 00:35:05;;;;;;;14.20;8.15;;;;;;;23.06;49.86;102148.50;5077326;28;20044;-55
2022/06/13 00:37:32;;;;;;;14.32;7.78;;;;;;;23.05;50.09;102152.22;5073902;28;20063;-53
2022/06/13 00:39:58;;;;;;;13.77;8.18;;;;;;;23.03;50.19;102155.03;5077385;28;20470;-55
2022/06/13 00:42:27;;;;;;;14.18;8.35;;;;;;;23.04;50.18;102150.50;5074416;28;20179;-54
2022/06/13 00:45:09;;;;;;;13.30;7.82;;;;;;;23.03;50.33;102144.22;5078728;28;20044;-53
2022/06/13 00:47:41;;;;;;;15.05;7.93;;;;;;;23.02;50.26;102130.88;5074532;28;20044;-54
2022/06/13 00:50:12;;;;;;;13.70;7.82;;;;;;;23.01;50.28;102124.63;5075602;28;20070;-54
2022/06/13 00:52:51;;;;;;;13.98;7.18;;;;;;;23.00;50.36;102128.34;5078263;28;20418;-54
2022/06/13 00:55:28;;;;;;;12.63;7.30;;;;;;;22.99;50.40;102134.72;5078281;28;20177;-54
2022/06/13 00:57:56;;;;;;;10.90;7.20;;;;;;;23.01;50.22;102129.19;5074794;28;20404;-55
2022/06/13 01:00:23;;;;;;;14.02;7.95;;;;;;;22.99;50.08;102134.72;5074370;28;20427;-54
2022/06/13 01:02:51;;;;;;;11.80;7.60;;;;;;;23.00;50.28;102127.50;5077159;28;20056;-53
2022/06/13 01:05:22;;;;;;;14.18;8.02;;;;;;;22.98;50.23;102138.44;5073933;28;20106;-55
2022/06/13 01:07:50;;;;;;;14.50;7.80;;;;;;;22.98;49.94;102135.75;5077435;28;20067;-54
2022/06/13 01:13:05;;;;;;;10.65;6.22;;;;;;;22.97;50.06;102134.03;5075316;28;20123;-54
2022/06/13 01:15:53;;;;;;;12.90;7.55;;;;;;;22.95;49.97;102133.34;5075110;28;20048;-55
2022/06/13 01:18:43;;;;;;;12.23;7.20;;;;;;;22.95;50.53;102135.19;5075417;28;20083;-54
2022/06/13 01:21:27;;;;;;;11.52;6.90;;;;;;;22.95;50.46;102135.19;5074271;28;20285;-53
2022/06/13 01:24:16;;;;;;;14.15;7.93;;;;;;;22.94;50.34;102137.06;5076326;28;20277;-55
2022/06/13 01:27:04;;;;;;;14.10;7.43;;;;;;;22.93;49.97;102143.47;5076160;28;20048;-54
2022/06/13 01:29:47;;;;;;;13.32;7.30;;;;;;;22.91;50.47;102129.25;5076780;28;20354;-55
2022/06/13 01:32:51;;;;;;;10.63;6.93;;;;;;;22.92;50.38;102132.81;5082617;28;20040;-55
2022/06/13 01:35:41;;;;;;;11.40;6.80;;;;;;;22.90;50.37;102128.41;5078681;28;20123;-53
2022/06/13 01:38:26;;;;;;;10.18;6.30;;;;;;;22.91;50.21;102134.66;5073919;28;20052;-54
2022/06/13 01:41:06;;;;;;;9.95;6.75;;;;;;;22.89;50.20;102133.94;5075954;28;20438;-54
2022/06/13 01:43:54;;;;;;;10.40;6.57;;;;;;;22.88;50.21;102138.50;5078054;28;20037;-54
2022/06/13 01:46:31;;;;;;;10.35;6.57;;;;;;;22.88;50.19;102132.25;5077483;28;20048;-55
2022/06/13 01:49:29;;;;;;;12.13;7.07;;;;;;;22.87;50.63;102134.09;5077554;28;20074;-54
2022/06/13 01:52:02;;;;;;;12.57;6.85;;;;;;;22.88;50.19;102129.53;5073090;28;20114;-55
2022/06/13 01:54:50;;;;;;;12.55;6.90;;;;;;;22.86;50.64;102134.25;5074303;28;20047;-53
2022/06/13 01:57:33;;;;;;;10.07;6.65;;;;;;;22.87;50.22;102141.34;5074940;28;20301;-53
2022/06/13 02:00:27;;;;;;;11.38;6.43;;;;;;;22.85;50.15;102144.22;5077076;28;20040;-55
2022/06/13 02:03:13;;;;;;;;;;;;;;;22.84;50.68;102137.13;5075559;28;20052;-55
2022/06/13 02:06:09;;;;;;;11.20;5.90;;;;;;;22.85;50.65;102141.50;5073824;28;20316;-55
2022/06/13 02:09:23;;;;;;;10.65;6.10;;;;;;;22.83;50.71;102140.78;5076567;28;20063;-54
2022/06/13 02:11:52;;;;;;;12.55;6.25;;;;;;;22.84;50.22;102137.13;5078475;28;20421;-53
2022/06/13 02:14:23;;;;;;;9.95;6.10;;;;;;;22.81;50.63;102132.00;5078990;28;20055;-54
2022/06/13 02:17:13;;;;;;;9.10;5.18;;;;;;;22.82;50.54;102130.16;5076047;28;20211;-54
2022/06/13 02:19:47;;;;;;;10.40;5.97;;;;;;;22.81;50.23;102139.28;5072929;28;20048;-54
2022/06/13 02:22:34;;;;;;;11.93;5.93;;;;;;;22.81;50.55;102137.41;5072773;28;20044;-53
2022/06/13 02:25:12;;;;;;;8.68;5.70;;;;;;;22.80;50.85;102124.06;5078091;28;20051;-53
2022/06/13 02:27:40;;;;;;;9.95;6.05;;;;;;;22.80;50.77;102126.75;5079190;28;20048;-54
2022/06/13 02:30:12;;;;;;;13.30;5.72;;;;;;;22.79;50.83;102139.41;5076803;28;20115;-53
2022/06/13 02:32:47;;;;;;;9.27;5.57;;;;;;;22.79;50.46;102133.16;5075716;28;20040;-54
2022/06/13 02:35:29;;;;;;;9.77;5.43;;;;;;;22.77;50.84;102133.31;5082377;28;20045;-54
2022/06/13 02:38:16;;;;;;;10.23;5.95;;;;;;;22.76;51.22;102139.72;5080447;28;20675;-54
2022/06/13 02:40:48;;;;;;;12.40;5.45;;;;;;;22.78;50.53;102134.16;5079216;28;20514;-54
2022/06/13 02:43:23;;;;;;;7.78;4.85;;;;;;;22.75;51.05;102129.91;5078248;28;20044;-54
2022/06/13 02:45:57;;;;;;;12.18;5.50;;;;;;;22.76;50.75;102137.03;5078128;28;20078;-52
2022/06/13 02:48:34;;;;;;;8.63;5.47;;;;;;;22.75;50.82;102138.00;5083240;28;20218;-55
2022/06/13 02:51:25;;;;;;;10.10;5.65;;;;;;;22.75;51.17;102137.16;5080156;28;20239;-54
2022/06/13 02:54:09;;;;;;;8.40;5.22;;;;;;;22.75;50.73;102147.97;5075661;28;20058;-53
2022/06/13 02:59:40;;;;;;;11.73;5.70;;;;;;;22.74;50.72;102147.13;5078522;28;20440;-53
2022/06/13 03:02:11;;;;;;;7.63;4.95;;;;;;;22.75;50.97;102137.16;5078003;28;20052;-54
2022/06/13 03:04:42;;;;;;;9.77;5.40;;;;;;;22.73;50.59;102140.03;5079641;28;20043;-53
2022/06/13 03:07:36;;;;;;;8.88;5.00;;;;;;;22.73;51.12;102150.00;5078862;28;20133;-52
2022/06/13 03:10:35;;;;;;;9.15;5.38;;;;;;;22.71;51.09;102147.44;5075568;28;20036;-54
2022/06/13 03:13:16;;;;;;;8.15;4.78;;;;;;;22.72;50.84;102148.31;5078601;28;20288;-54
2022/06/13 03:15:50;;;;;;;9.38;4.88;;;;;;;22.72;50.61;102148.31;5076510;28;20332;-54
2022/06/13 03:18:25;;;;;;;9.10;4.68;;;;;;;22.70;51.04;102148.44;5079403;28;20063;-55
2022/06/13 03:21:10;;;;;;;9.85;5.32;;;;;;;22.69;51.09;102151.31;5075878;28;20051;-55
2022/06/13 03:23:47;;;;;;;7.43;4.57;;;;;;;22.70;50.94;102153.00;5076552;28;20063;-52
2022/06/13 03:26:19;;;;;;;9.52;5.50;;;;;;;22.69;50.66;102162.97;5080042;28;20143;-54
2022/06/13 03:29:03;;;;;;;8.93;4.47;;;;;;;22.70;51.06;102158.41;5080272;28;20047;-53
2022/06/13 03:31:36;;;;;;;10.32;5.20;;;;;;;22.69;51.03;102162.13;5080124;28;20059;-52
2022/06/13 03:34:10;;;;;;;9.55;4.25;;;;;;;22.70;51.16;102158.41;5077943;28;20063;-54
2022/06/13 03:36:48;;;;;;;6.38;3.95;;;;;;;22.66;51.43;102156.00;5079030;28;20040;-54
2022/06/13 03:39:27;;;;;;;10.88;5.15;;;;;;;22.66;51.00;102155.16;5078246;28;20049;-54
2022/06/13 03:42:04;;;;;;;9.45;5.10;;;;;;;22.67;51.37;102164.94;5076996;28;20074;-53
2022/06/13 03:44:37;;;;;;;7.53;4.68;;;;;;;22.67;51.17;102162.25;5075660;28;20403;-54
2022/06/13 03:47:14;;;;;;;8.88;4.70;;;;;;;22.67;51.09;102159.53;5080152;28;20054;-54
2022/06/13 03:50:13;;;;;;;10.32;5.15;;;;;;;22.66;51.02;102158.69;5076319;28;20127;-56
2022/06/13 03:52:46;;;;;;;6.88;4.57;;;;;;;22.67;51.43;102165.84;5073836;28;20055;-55
2022/06/13 03:55:39;;;;;;;9.95;5.80;;;;;;;22.68;51.10;102174.78;5078973;28;20056;-55
2022/06/13 03:58:14;;;;;;;8.73;4.68;;;;;;;22.66;51.47;102183.03;5044314;28;20055;-54
2022/06/13 04:00:56;;;;;;;10.07;4.60;;;;;;;22.67;51.59;102182.06;5077181;28;20063;-54
2022/06/13 04:03:24;;;;;;;18.33;6.60;;;;;;;22.67;51.76;102184.75;5073958;28;20490;-55
2022/06/13 04:05:58;;;;;;;21.38;7.38;;;;;;;22.67;51.66;102190.16;5079274;28;20056;-54
2022/06/13 04:08:27;;;;;;;25.33;7.68;;;;;;;22.67;51.71;102187.44;5082092;28;20425;-54
2022/06/13 04:11:22;;;;;;;32.85;10.07;;;;;;;22.67;51.62;102195.56;5084820;28;20048;-55
2022/06/13 04:14:14;;;;;;;22.80;8.55;;;;;;;22.67;51.39;102189.28;5084661;28;20126;-54
2022/06/13 04:16:59;;;;;;;28.83;9.45;;;;;;;22.66;51.46;102193.84;5077075;28;20063;-54
2022/06/13 04:19:51;;;;;;;25.17;9.23;;;;;;;22.66;51.28;102191.13;5078310;28;20044;-54
2022/06/13 04:22:21;;;;;;;26.80;9.70;;;;;;;22.66;51.32;102185.72;5082899;28;20411;-53
2022/06/13 04:25:15;;;;;;;28.50;9.52;;;;;;;22.67;51.08;102189.28;5086042;28;20442;-54
2022/06/13 04:27:50;;;;;;;24.45;9.57;;;;;;;22.65;51.62;102189.44;5075705;28;20040;-53
2022/06/13 04:30:21;;;;;;;30.65;10.13;;;;;;;22.66;51.34;102191.13;5072752;28;20040;-54
2022/06/13 04:32:53;;;;;;;26.40;8.85;;;;;;;22.66;51.08;102201.09;5077617;28;20045;-52
2022/06/13 04:35:20;;;;;;;25.17;9.67;;;;;;;22.65;51.35;102197.56;5077439;28;20727;-54
2022/06/13 04:37:48;;;;;;;22.75;8.73;;;;;;;22.65;51.17;102194.00;5079569;28;20549;-52
2022/06/13 04:40:25;;;;;;;23.00;8.02;;;;;;;22.65;51.26;102196.69;5082230;28;20046;-52
2022/06/13 04:42:54;;;;;;;24.15;9.68;;;;;;;22.69;51.25;102197.25;5076256;28;20137;-54
2022/06/13 04:45:31;;;;;;;23.65;8.85;;;;;;;22.66;51.36;102193.84;5076346;28;20044;-54
2022/06/13 04:48:00;;;;;;;21.05;8.57;;;;;;;22.66;50.95;102199.25;5076764;28;20480;-54
2022/06/13 04:50:36;;;;;;;20.95;8.18;;;;;;;22.66;51.04;102191.13;5078400;28;20036;-53
2022/06/13 04:53:05;;;;;;;40.90;11.60;;;;;;;22.66;50.87;102188.44;5080843;28;20407;-54
2022/06/13 04:55:46;;;;;;;43.60;11.68;;;;;;;22.68;50.90;102196.41;5076396;28;20335;-53
2022/06/13 04:58:33;;;;;;;32.70;11.23;;;;;;;22.67;51.05;102198.25;5081526;28;20123;-52
2022/06/13 05:01:14;;;;;;;50.60;12.60;;;;;;;22.68;50.87;102196.41;5078157;28;20140;-55
2022/06/13 05:03:42;;;;;;;61.47;15.00;;;;;;;22.68;50.84;102199.13;5078065;28;20437;-54
2022/06/13 05:06:21;;;;;;;65.60;15.45;;;;;;;22.69;51.39;102208.06;5076840;28;20054;-53
2022/06/13 05:08:56;;;;;;;54.28;15.82;;;;;;;22.70;51.32;102215.16;5073961;28;20052;-54
2022/06/13 05:11:27;;;;;;;63.22;17.48;;;;;;;22.75;50.87;102212.84;5079426;28;20091;-53
2022/06/13 05:14:03;;;;;;;57.15;17.08;;;;;;;22.75;51.07;102213.69;5076585;28;20128;-55
2022/06/13 05:16:52;;;;;;;64.40;15.82;;;;;;;22.77;50.96;102217.13;5079179;28;20143;-54
2022/06/13 05:19:40;;;;;;;52.80;15.40;;;;;;;22.77;51.11;102218.97;5072865;28;22849;-52
2022/06/13 05:22:36;;;;;;;41.72;13.18;;;;;;;22.77;51.41;102227.94;5074169;28;20040;-54
2022/06/13 05:25:23;;;;;;;58.90;15.15;;;;;;;22.77;50.88;102227.09;5075584;28;20586;-54
2022/06/13 05:27:50;;;;;;;49.95;13.70;;;;;;;22.77;51.17;102227.09;5078140;28;20045;-53
2022/06/13 05:30:17;;;;;;;44.60;13.20;;;;;;;22.76;51.21;102237.03;5077356;28;20778;-53
2022/06/13 05:32:44;;;;;;;60.72;13.18;;;;;;;22.76;51.02;102238.91;5079464;28;20047;-52
2022/06/13 05:35:29;;;;;;;45.00;13.25;;;;;;;22.75;51.18;102238.03;5075384;28;20057;-55
2022/06/13 05:37:58;;;;;;;42.67;12.35;;;;;;;22.76;51.18;102238.91;5075093;28;20439;-55
2022/06/13 05:40:25;;;;;;;42.10;12.02;;;;;;;22.76;51.17;102239.75;5076510;28;20050;-53
2022/06/13 05:42:52;;;;;;;42.28;12.20;;;;;;;22.76;50.84;102241.59;5076399;28;20054;-54
2022/06/13 05:45:24;;;;;;;36.75;11.60;;;;;;;22.77;50.81;102248.72;5075299;28;20072;-53
2022/06/13 05:47:56;;;;;;;32.17;10.87;;;;;;;22.79;50.81;102254.78;5074082;28;20155;-55
2022/06/13 05:50:26;;;;;;;32.95;11.48;;;;;;;22.79;50.49;102258.34;5074178;28;20518;-56
2022/06/13 05:52:52;;;;;;;32.55;10.55;;;;;;;22.80;50.59;102262.78;5080824;28;20054;-54
2022/06/13 05:55:19;;;;;;;28.00;10.07;;;;;;;22.80;50.52;102254.66;5076403;28;20119;-55
2022/06/13 05:58:02;;;;;;;31.20;11.70;;;;;;;22.80;50.49;102251.13;5078592;28;20292;-55
2022/06/13 06:00:36;;;;;;;31.25;9.70;;;;;;;22.80;50.50;102253.81;5074620;28;20088;-55
2022/06/13 06:03:04;;;;;;;33.15;10.23;;;;;;;22.80;50.57;102257.38;5074352;28;20048;-56
2022/06/13 06:05:31;;;;;;;29.67;9.93;;;;;;;22.81;50.15;102260.91;5078336;28;20123;-55
2022/06/13 06:07:57;;;;;;;26.65;9.85;;;;;;;22.81;50.64;102263.63;5079304;28;20039;-55
2022/06/13 06:10:30;;;;;;;24.27;9.75;;;;;;;22.82;50.50;102265.31;5078207;28;20167;-55
2022/06/13 06:12:56;;;;;;;29.90;9.70;;;;;;;22.83;50.55;102269.72;5082788;28;20367;-54
2022/06/13 06:15:23;;;;;;;25.10;8.68;;;;;;;22.83;50.23;102277.81;5080426;28;20539;-55
2022/06/13 06:17:50;;;;;;;22.45;8.30;;;;;;;22.82;50.68;102282.38;5081063;28;20051;-55
2022/06/13 06:20:23;;;;;;;24.02;8.55;;;;;;;22.85;50.46;102278.53;5079110;28;20055;-55
2022/06/13 06:22:49;;;;;;;20.35;7.82;;;;;;;22.84;50.31;102290.38;5083052;28;20060;-56
2022/06/13 06:25:16;;;;;;;23.65;8.35;;;;;;;22.86;50.20;102288.34;5084993;28;20442;-55
2022/06/13 06:27:43;;;;;;;20.95;8.07;;;;;;;22.86;50.42;102293.75;5080688;28;20036;-56
2022/06/13 06:30:14;;;;;;;18.20;7.20;;;;;;;22.85;50.24;102295.59;5087032;28;20055;-54
2022/06/13 06:32:40;;;;;;;17.40;7.80;;;;;;;22.85;50.56;102300.16;5084061;28;20068;-56
2022/06/13 06:35:07;;;;;;;18.73;7.93;;;;;;;22.85;50.44;102292.91;5081593;28;20327;-55
2022/06/13 06:37:38;;;;;;;16.85;7.38;;;;;;;22.87;50.29;102296.31;5083378;28;20047;-53
2022/06/13 06:40:05;;;;;;;22.50;7.95;;;;;;;22.87;50.46;102301.72;5079963;28;20054;-56
2022/06/13 06:42:32;;;;;;;16.85;7.00;;;;;;;22.87;50.05;102301.72;5079157;28;20052;-56
2022/06/13 06:45:18;;;;;;;17.67;6.55;;;;;;;22.86;50.16;102302.72;5082379;28;20059;-55
2022/06/13 06:47:45;;;;;;;20.20;6.38;;;;;;;22.87;50.02;102307.13;5083658;28;20058;-53
2022/06/13 06:50:14;;;;;;;15.88;6.03;;;;;;;22.86;50.35;102304.56;5082730;28;20052;-54
2022/06/13 06:52:42;;;;;;;17.60;6.43;;;;;;;22.84;50.01;102304.72;5082121;28;20044;-54
2022/06/13 07:00:46;;;;;;;15.68;6.13;;;;;;;22.81;50.17;102309.56;5083937;28;20081;-55
2022/06/13 07:03:13;;;;;;;12.90;5.40;;;;;;;22.81;50.16;102313.13;5081452;28;20080;-55
2022/06/13 07:05:40;;;;;;;11.35;5.43;;;;;;;22.81;49.97;102309.56;5077422;28;20440;-55
2022/06/13 07:08:11;;;;;;;12.90;5.65;;;;;;;22.79;50.05;102312.41;5080563;28;20411;-55
2022/06/13 07:10:38;;;;;;;10.45;4.65;;;;;;;22.79;50.15;102317.81;5082639;28;20309;-55
2022/06/13 07:13:05;;;;;;;12.52;5.55;;;;;;;22.79;49.94;102316.97;5081823;28;20052;-55
2022/06/13 07:15:32;;;;;;;12.57;5.28;;;;;;;22.79;49.72;102322.38;5080248;28;20044;-56
2022/06/13 07:17:58;;;;;;;10.77;5.28;;;;;;;22.79;49.50;102327.78;5079112;28;20127;-55
2022/06/13 07:20:25;;;;;;;8.30;3.97;;;;;;;22.79;50.21;102328.63;5080297;28;20066;-55
2022/06/13 07:22:54;;;;;;;11.73;4.90;;;;;;;22.80;49.84;102332.22;5082174;28;20063;-54
2022/06/13 07:25:26;;;;;;;10.25;4.30;;;;;;;22.79;49.98;102330.50;5083260;28;20047;-54
2022/06/13 07:27:53;;;;;;;12.52;4.93;;;;;;;22.80;49.64;102348.44;5082607;28;20064;-55
2022/06/13 07:30:21;;;;;;;8.57;4.15;;;;;;;22.79;49.73;102346.72;5081386;28;20044;-55
2022/06/13 07:32:50;;;;;;;11.65;4.20;;;;;;;22.80;49.91;102345.72;5080303;28;20139;-54
2022/06/13 07:35:20;;;;;;;11.13;4.63;;;;;;;22.81;49.83;102348.28;5079930;28;20055;-55
2022/06/13 07:40:32;;;;;;;9.63;4.40;;;;;;;22.84;49.76;102360.66;5077696;28;20077;-55
2022/06/13 07:43:01;;;;;;;8.60;4.03;;;;;;;22.84;49.92;102349.84;5081787;28;20437;-55
2022/06/13 07:45:33;;;;;;;9.52;4.07;;;;;;;22.86;49.84;102350.53;5082155;28;20368;-54
2022/06/13 07:48:16;;;;;;;9.15;3.97;;;;;;;22.87;49.40;102353.09;5087496;28;20063;-56
2022/06/13 07:50:42;;;;;;;13.30;3.92;;;;;;;22.90;49.52;102357.34;5086528;28;20457;-55
2022/06/13 07:53:09;;;;;;;10.02;3.65;;;;;;;22.91;49.84;102361.78;5086923;28;20517;-55
2022/06/13 07:55:37;;;;;;;9.02;3.72;;;;;;;22.92;49.28;102358.09;5081918;28;20315;-55
2022/06/13 07:58:04;;;;;;;8.80;3.58;;;;;;;22.93;49.39;102365.19;5081228;28;20040;-54
2022/06/13 08:00:34;;;;;;;5.95;3.00;;;;;;;22.94;49.69;102369.59;5078872;28;20131;-55
2022/06/13 08:03:01;;;;;;;7.18;3.20;;;;;;;22.95;49.05;102367.75;5082516;28;20041;-54
2022/06/13 08:05:29;;;;;;;9.50;3.60;;;;;;;22.96;49.11;102374.88;5083793;28;20370;-54
2022/06/13 08:07:56;;;;;;;4.28;2.40;;;;;;;22.96;49.11;102369.47;5086026;28;20123;-55
2022/06/13 08:10:24;;;;;;;6.30;3.00;;;;;;;22.97;49.22;102376.56;5082569;28;20124;-54
2022/06/13 08:12:50;;;;;;;9.13;3.00;;;;;;;22.97;49.66;102374.72;5083291;28;20129;-55
2022/06/13 08:15:18;;;;;;;8.45;2.83;;;;;;;22.98;49.39;102379.09;5082003;28;20047;-55
2022/06/13 08:17:44;;;;;;;8.18;3.58;;;;;;;22.99;49.26;102377.25;5079397;28;20446;-55
2022/06/13 08:20:11;;;;;;;6.97;3.22;;;;;;;23.00;49.09;102385.25;5078368;28;20123;-55
2022/06/13 08:22:46;;;;;;;7.40;3.30;;;;;;;23.01;49.40;102389.63;5080991;28;20492;-54
2022/06/13 08:25:28;;;;;;;5.22;2.70;;;;;;;23.02;48.65;102399.44;5077268;28;20427;-55
2022/06/13 08:27:57;;;;;;;8.75;3.03;;;;;;;23.03;49.23;102405.69;5084043;28;20047;-55
2022/06/13 08:30:28;;;;;;;9.77;2.90;;;;;;;23.02;49.02;102402.16;5080364;28;20655;-55
2022/06/13 08:32:54;;;;;;;10.07;3.88;;;;;;;23.02;49.10;102407.56;5079346;28;20054;-56
2022/06/13 08:35:21;;;;;;;7.03;3.53;;;;;;;23.03;49.08;102406.53;5077971;28;20063;-54
2022/06/13 08:37:57;;;;;;;5.95;2.60;;;;;;;23.03;49.25;102403.84;5082613;28;20048;-55
2022/06/13 08:40:29;;;;;;;6.10;2.55;;;;;;;23.03;48.96;102403.00;5081073;28;20058;-55
2022/06/13 08:43:04;;;;;;;6.15;2.65;;;;;;;23.04;49.37;102412.84;5076895;28;20060;-56
2022/06/13 08:45:47;;;;;;;5.25;2.25;;;;;;;23.04;49.02;102407.44;5077668;28;20070;-55
2022/06/13 08:48:33;;;;;;;5.15;2.42;;;;;;;23.05;49.03;102406.41;5080503;28;20146;-55
2022/06/13 08:51:33;;;;;;;5.07;2.97;;;;;;;23.06;49.05;102413.53;5077076;28;20047;-55
2022/06/13 08:54:00;;;;;;;3.30;2.10;;;;;;;23.07;49.15;102418.78;5071693;28;20420;-53
2022/06/13 08:56:35;;;;;;;6.88;2.72;;;;;;;23.07;48.90;102416.06;5078586;28;20048;-55
2022/06/13 08:59:34;;;;;;;5.47;2.60;;;;;;;23.07;49.06;102423.34;5078597;28;20040;-53
2022/06/13 09:02:19;;;;;;;6.03;2.28;;;;;;;23.09;48.71;102424.06;5076256;28;20143;-55
2022/06/13 09:05:03;;;;;;;5.68;2.33;;;;;;;23.10;49.06;102431.16;5080386;28;20098;-55
2022/06/13 09:07:38;;;;;;;4.25;1.85;;;;;;;23.11;48.46;102427.44;5082139;28;20042;-54
2022/06/13 09:10:11;;;;;;;3.13;1.83;;;;;;;23.11;48.76;102427.44;5081148;28;20041;-54
2022/06/13 09:12:52;;;;;;;5.15;1.98;;;;;;;23.11;48.71;102435.56;5079548;28;20059;-55
2022/06/13 09:15:25;;;;;;;6.18;2.20;;;;;;;23.12;48.27;102445.41;5076766;28;20040;-55
2022/06/13 09:18:33;;;;;;;4.63;1.88;;;;;;;23.14;48.29;102443.38;5077030;28;20044;-55
2022/06/13 09:21:14;;;;;;;5.32;2.20;;;;;;;23.15;48.25;102442.38;5076976;28;20138;-56
2022/06/13 09:23:57;;;;;;;3.78;1.95;;;;;;;23.16;47.80;102438.69;5084534;28;20048;-55
2022/06/13 09:26:29;;;;;;;4.25;1.83;;;;;;;23.17;48.10;102461.19;5082617;28;20387;-56
2022/06/13 09:29:18;;;;;;;5.37;1.40;;;;;;;23.17;47.57;102442.25;5085841;28;20044;-56
2022/06/13 09:31:48;;;;;;;2.30;1.45;;;;;;;23.19;47.71;102461.88;5080000;28;20400;-54
2022/06/13 09:34:33;;;;;;;4.13;1.50;;;;;;;23.20;47.42;102460.88;5081801;28;20127;-54
2022/06/13 09:37:13;;;;;;;4.20;1.83;;;;;;;23.22;47.56;102453.47;5079735;28;20388;-55
2022/06/13 09:39:41;;;;;;;3.58;1.95;;;;;;;23.24;47.55;102459.59;5078201;28;20332;-55
2022/06/13 09:42:29;;;;;;;4.93;1.70;;;;;;;23.26;47.59;102454.88;5081687;28;20036;-55
2022/06/13 09:45:10;;;;;;;3.20;1.40;;;;;;;23.28;47.27;102453.72;5088872;28;20075;-55
2022/06/13 09:47:37;;;;;;;4.88;1.50;;;;;;;23.31;47.07;102460.69;5090930;28;20046;-55
2022/06/13 09:50:15;;;;;;;3.10;1.73;;;;;;;23.32;47.57;102454.28;5089782;28;20284;-56
2022/06/13 09:52:54;;;;;;;3.95;1.63;;;;;;;23.34;47.66;102466.66;5086465;28;20168;-55
2022/06/13 09:55:42;;;;;;;5.03;1.63;;;;;;;23.35;47.43;102459.38;5083616;28;20510;-55
2022/06/13 09:58:30;;;;;;;3.35;1.42;;;;;;;23.36;47.28;102461.09;5082235;28;20071;-55
2022/06/13 10:01:22;;;;;;;2.85;1.48;;;;;;;23.37;47.60;102457.38;5085563;28;20052;-54
2022/06/13 10:04:17;;;;;;;3.90;1.75;;;;;;;23.38;47.00;102459.94;5067464;28;20545;-54
2022/06/13 10:06:46;;;;;;;;;;;;;;;23.39;47.24;102477.88;5088652;28;20048;-55
2022/06/13 10:09:36;;;;;;;3.78;1.50;;;;;;;23.41;46.58;102475.03;5085956;28;19978;-54
2022/06/13 10:12:25;;;;;;;4.40;1.65;;;;;;;23.41;47.13;102469.63;5082558;28;20131;-56
2022/06/13 10:15:10;;;;;;;4.00;1.50;;;;;;;23.42;47.08;102479.44;5086843;28;20044;-55
2022/06/13 10:17:40;;;;;;;3.08;1.60;;;;;;;23.42;47.17;102476.72;5084218;28;20041;-56
2022/06/13 10:20:30;;;;;;;5.45;1.45;;;;;;;23.43;47.15;102475.72;5083622;28;20396;-55
2022/06/13 10:23:33;;;;;;;2.25;1.30;;;;;;;23.44;47.27;102476.56;5084219;28;20040;-54
2022/06/13 10:26:26;;;;;;;6.28;1.98;;;;;;;23.46;46.73;102480.84;5084486;28;20036;-55
2022/06/13 10:29:05;;;;;;;2.65;1.35;;;;;;;23.47;47.05;102490.66;5081472;28;20048;-56
2022/06/13 10:32:11;;;;;;;3.50;1.45;;;;;;;23.48;46.90;102486.97;5081702;28;20040;-56
2022/06/13 10:34:47;;;;;;;2.92;1.30;;;;;;;23.50;46.46;102490.34;5085106;28;20064;-55
2022/06/13 10:37:41;;;;;;;3.60;1.30;;;;;;;23.52;46.91;102490.22;5084258;28;20051;-55
2022/06/13 10:40:11;;;;;;;2.97;1.38;;;;;;;23.53;46.74;102479.25;5083145;28;20390;-55
2022/06/13 10:42:39;;;;;;;2.53;1.17;;;;;;;23.55;46.68;102487.19;5084666;28;20138;-55
2022/06/13 10:45:10;;;;;;;2.10;1.42;;;;;;;23.54;46.16;102480.09;5083487;28;20123;-55
2022/06/13 10:47:55;;;;;;;5.60;1.52;;;;;;;23.54;46.19;102486.34;5083460;28;20123;-54
2022/06/13 10:50:56;;;;;;;3.15;1.30;;;;;;;23.56;46.34;102497.03;5082967;28;20044;-56
2022/06/13 10:53:37;;;;;;;2.05;0.90;;;;;;;23.58;46.76;102490.47;5060344;28;20331;-54
2022/06/13 10:56:08;;;;;;;3.45;1.15;;;;;;;23.59;46.16;102491.31;5080241;28;20037;-53
2022/06/13 10:58:51;;;;;;;3.22;1.17;;;;;;;23.60;46.28;102493.03;5081279;28;20040;-54
2022/06/13 11:01:24;;;;;;;2.43;0.90;;;;;;;23.61;46.62;102492.88;5081691;28;20046;-54
2022/06/13 11:04:17;;;;;;;2.90;0.80;;;;;;;23.63;46.67;102487.28;5081842;28;20547;-55
2022/06/13 11:06:53;;;;;;;2.90;0.97;;;;;;;23.64;46.24;102492.56;5084934;28;20478;-55
2022/06/13 11:09:21;;;;;;;2.45;1.00;;;;;;;23.66;46.09;102499.72;5083906;28;20131;-53
2022/06/13 11:11:57;;;;;;;2.70;0.88;;;;;;;23.67;46.77;102501.41;5080689;28;20371;-55
2022/06/13 11:14:38;;;;;;;2.60;1.17;;;;;;;23.69;46.39;102510.25;5080002;28;20036;-53
2022/06/13 11:23:00;;;;;;;3.08;1.27;;;;;;;23.72;45.99;102505.41;5080025;28;20052;-53
2022/06/13 11:25:30;;;;;;;3.00;1.13;;;;;;;23.74;46.72;102502.53;5080567;28;20040;-53
2022/06/13 11:28:11;;;;;;;4.10;1.05;;;;;;;23.74;45.83;102513.34;5087532;28;20131;-54
2022/06/13 11:30:53;;;;;;;2.47;0.90;;;;;;;23.75;46.37;102513.19;5087727;28;20131;-53
2022/06/13 11:33:32;;;;;;;2.28;0.80;;;;;;;23.76;45.78;102523.03;5081871;28;20423;-52
2022/06/13 11:36:22;;;;;;;1.67;0.95;;;;;;;23.76;46.53;102514.91;5080909;28;20040;-53
2022/06/13 11:39:00;;;;;;;3.45;1.00;;;;;;;23.79;45.58;102516.44;5079038;28;20048;-53
2022/06/13 11:41:27;;;;;;;3.13;1.02;;;;;;;23.80;45.65;102519.03;5078647;28;20135;-54
2022/06/13 11:44:05;;;;;;;2.83;1.10;;;;;;;23.81;46.00;102509.03;5079204;28;20049;-53
2022/06/13 11:46:54;;;;;;;1.92;0.85;;;;;;;23.82;46.38;102510.75;5084375;28;20059;-52
2022/06/13 11:49:32;;;;;;;2.38;1.15;;;;;;;23.82;45.51;102517.00;5083406;28;20044;-53
2022/06/13 11:55:22;;;;;;;1.70;0.90;;;;;;;23.86;45.48;102510.28;5048999;28;20041;-52
2022/06/13 11:57:56;;;;;;;2.25;0.90;;;;;;;23.86;45.46;102507.56;5079863;28;20040;-52
2022/06/13 12:00:49;;;;;;;3.80;0.95;;;;;;;23.86;45.61;102523.81;5080607;28;20407;-53
2022/06/13 12:03:22;;;;;;;2.97;0.90;;;;;;;23.86;45.27;102507.56;5080216;28;20151;-53
2022/06/13 12:06:10;;;;;;;2.25;1.10;;;;;;;23.87;45.74;102520.09;5079975;28;20048;-52
2022/06/13 12:08:38;;;;;;;2.60;1.25;;;;;;;23.91;45.50;102522.50;5079106;28;20151;-53
2022/06/13 12:11:21;;;;;;;1.63;0.75;;;;;;;23.88;45.45;102513.72;5079104;28;20067;-54
2022/06/13 12:13:49;;;;;;;2.78;0.98;;;;;;;23.91;45.82;102523.38;5079484;28;20045;-52
2022/06/13 12:16:50;;;;;;;3.17;1.20;;;;;;;23.90;45.86;102513.53;5084413;28;20047;-53
2022/06/13 12:19:57;;;;;;;1.38;0.80;;;;;;;23.90;45.91;102513.53;5064095;28;20048;-54
2022/06/13 12:22:53;;;;;;;2.72;1.27;;;;;;;23.91;45.83;102531.50;5081875;28;20052;-54
2022/06/13 12:25:39;;;;;;;1.75;0.80;;;;;;;23.92;45.67;102521.50;5082987;28;20131;-54
2022/06/13 12:28:06;;;;;;;1.60;0.70;;;;;;;23.93;45.70;102534.91;5080762;28;20127;-55